createdAt,value
2023-05-22T00:03:54.758Z,16.25
2023-05-22T00:08:59.918Z,16.16
2023-05-22T00:14:07.801Z,16.34
2023-05-22T00:19:16.870Z,16.22
2023-05-22T00:24:22.154Z,16.31
2023-05-22T00:29:30.227Z,16.38
2023-05-22T00:34:36.057Z,16.51
2023-05-22T00:39:41.665Z,15.84
2023-05-22T00:44:50.111Z,15.86
2023-05-22T00:49:55.682Z,16.08
2023-05-22T00:55:04.071Z,16.47
2023-05-22T01:00:13.731Z,16.35
2023-05-22T01:05:19.152Z,15.95
2023-05-22T01:10:24.433Z,16.42
2023-05-22T01:15:40.016Z,16.25
2023-05-22T01:20:53.679Z,15.87
2023-05-22T01:26:24.004Z,15.95
2023-05-22T01:31:34.465Z,16.26
2023-05-22T01:36:41.180Z,16.23
2023-05-22T01:41:46.579Z,16.05
2023-05-22T01:46:54.273Z,15.74
2023-05-22T01:52:06.872Z,15.61
2023-05-22T01:57:21.536Z,15.23
2023-05-22T02:02:30.809Z,15.09
2023-05-22T02:07:39.560Z,14.99
2023-05-22T02:12:45.268Z,15.08
2023-05-22T02:17:53.485Z,14.99
2023-05-22T02:22:58.844Z,14.80
2023-05-22T02:28:06.535Z,14.70
2023-05-22T02:33:18.242Z,14.77
2023-05-22T02:38:23.335Z,14.64
2023-05-22T02:43:28.550Z,14.68
2023-05-22T02:48:36.472Z,14.82
2023-05-22T02:53:42.042Z,14.99
2023-05-22T02:58:47.203Z,15.00
2023-05-22T03:03:55.301Z,15.09
2023-05-22T03:09:00.703Z,15.46
2023-05-22T03:14:06.038Z,15.12
2023-05-22T03:19:14.913Z,15.14
2023-05-22T03:24:26.379Z,14.79
2023-05-22T03:29:31.644Z,14.92
2023-05-22T03:34:39.650Z,14.64
2023-05-22T03:39:47.660Z,14.75
2023-05-22T03:45:10.082Z,15.21
2023-05-22T03:50:18.780Z,14.99
2023-05-22T03:55:23.969Z,14.98
2023-05-22T04:00:29.970Z,15.03
2023-05-22T04:05:37.839Z,15.57
2023-05-22T04:10:49.079Z,15.72
2023-05-22T04:15:54.885Z,16.00
2023-05-22T04:21:03.910Z,15.77
2023-05-22T04:26:10.569Z,16.17
2023-05-22T04:31:15.823Z,16.41
2023-05-22T04:36:28.590Z,16.78
2023-05-22T04:41:34.500Z,16.98
2023-05-22T04:46:39.787Z,17.21
2023-05-22T04:51:47.667Z,17.44
2023-05-22T04:56:53.621Z,17.54
2023-05-22T05:02:00.777Z,17.58
2023-05-22T05:07:09.308Z,18.30
2023-05-22T05:12:17.408Z,18.67
2023-05-22T05:17:30.791Z,18.63
2023-05-22T05:22:40.912Z,19.26
2023-05-22T05:27:46.931Z,19.40
2023-05-22T05:32:55.267Z,20.18
2023-05-22T05:38:22.174Z,20.46
2023-05-22T05:43:27.742Z,19.97
2023-05-22T05:48:39.380Z,19.84
2023-05-22T05:53:47.552Z,19.92
2023-05-22T05:58:57.161Z,19.26
2023-05-22T06:04:18.936Z,19.45
2023-05-22T06:09:41.430Z,19.94
2023-05-22T06:14:52.445Z,20.35
2023-05-22T06:19:58.885Z,21.10
2023-05-22T06:25:08.265Z,21.34
2023-05-22T06:30:20.240Z,21.99
2023-05-22T06:35:31.128Z,22.05
2023-05-22T06:40:43.244Z,22.82
2023-05-22T06:45:54.111Z,22.40
2023-05-22T06:51:03.096Z,23.15
2023-05-22T06:56:12.924Z,22.77
2023-05-22T07:01:34.882Z,22.99
2023-05-22T07:06:50.990Z,22.76
2023-05-22T07:11:59.644Z,23.03
2023-05-22T07:17:07.190Z,23.54
2023-05-22T07:22:20.612Z,23.48
2023-05-22T07:27:30.774Z,23.42
2023-05-22T07:32:37.309Z,23.00
2023-05-22T07:37:42.774Z,23.06
2023-05-22T07:42:51.009Z,24.36
2023-05-22T07:48:04.554Z,24.24
2023-05-22T07:53:22.893Z,24.76
2023-05-22T07:58:36.539Z,25.18
2023-05-22T08:03:41.801Z,25.36
2023-05-22T08:08:48.666Z,25.16
2023-05-22T08:13:59.621Z,24.85
2023-05-22T08:19:08.459Z,25.17
2023-05-22T08:24:13.953Z,24.86
2023-05-22T08:29:22.332Z,24.77
2023-05-22T08:34:28.641Z,24.35
2023-05-22T08:39:36.716Z,24.90
2023-05-22T08:44:45.972Z,24.50
2023-05-22T08:49:58.844Z,24.67
2023-05-22T08:55:07.828Z,24.53
2023-05-22T09:00:21.290Z,24.29
2023-05-22T09:05:28.429Z,24.37
2023-05-22T09:10:40.541Z,23.92
2023-05-22T09:15:55.130Z,25.30
2023-05-22T09:21:04.957Z,25.07
2023-05-22T09:26:12.178Z,24.50
2023-05-22T09:31:20.322Z,25.06
2023-05-22T09:36:26.028Z,24.65
2023-05-22T09:41:34.599Z,24.58
2023-05-22T09:46:47.357Z,24.92
2023-05-22T09:51:56.750Z,25.12
2023-05-22T09:57:04.082Z,25.18
2023-05-22T10:02:13.628Z,24.69
2023-05-22T10:07:21.015Z,25.08
2023-05-22T10:12:28.355Z,25.26
2023-05-22T10:17:37.526Z,24.96
2023-05-22T10:22:45.419Z,24.80
2023-05-22T10:27:54.199Z,24.52
2023-05-22T10:33:11.810Z,24.33
2023-05-22T10:38:41.594Z,24.57
2023-05-22T10:43:51.582Z,24.84
2023-05-22T10:49:07.573Z,24.34
2023-05-22T10:54:13.372Z,24.69
2023-05-22T10:59:18.740Z,24.75
2023-05-22T11:04:30.854Z,25.02
2023-05-22T11:09:40.839Z,25.05
2023-05-22T11:14:46.705Z,24.64
2023-05-22T11:20:01.829Z,24.79
2023-05-22T11:25:11.919Z,24.63
2023-05-22T11:30:19.301Z,24.69
2023-05-22T11:35:30.611Z,24.92
2023-05-22T11:40:37.180Z,24.69
2023-05-22T11:45:43.240Z,25.02
2023-05-22T11:50:51.476Z,25.71
2023-05-22T11:55:56.682Z,25.65
2023-05-22T12:01:12.853Z,24.91
2023-05-22T12:06:21.275Z,24.86
2023-05-22T12:11:37.949Z,25.97
2023-05-22T12:16:44.753Z,25.32
2023-05-22T12:21:53.218Z,25.48
2023-05-22T12:26:59.562Z,25.95
2023-05-22T12:32:08.199Z,26.11
2023-05-22T12:37:25.477Z,26.52
2023-05-22T12:42:31.758Z,25.79
2023-05-22T12:47:37.444Z,25.24
2023-05-22T12:52:45.521Z,25.63
2023-05-22T12:57:58.888Z,25.34
2023-05-22T13:03:17.920Z,26.47
2023-05-22T13:08:25.767Z,25.32
2023-05-22T13:13:36.484Z,25.76
2023-05-22T13:18:41.897Z,25.97
2023-05-22T13:24:02.162Z,26.01
2023-05-22T13:29:07.583Z,26.11
2023-05-22T13:34:12.867Z,26.41
2023-05-22T13:39:20.930Z,25.97
2023-05-22T13:44:49.380Z,26.23
2023-05-22T13:50:01.296Z,25.70
2023-05-22T13:55:09.700Z,26.15
2023-05-22T14:00:19.016Z,26.19
2023-05-22T14:05:24.546Z,25.95
2023-05-22T14:10:32.514Z,26.36
2023-05-22T14:15:43.427Z,26.13
2023-05-22T14:20:49.728Z,26.61
2023-05-22T14:26:00.297Z,25.30
2023-05-22T14:31:07.506Z,25.79
2023-05-22T14:36:13.954Z,25.34
2023-05-22T14:41:23.182Z,25.74
2023-05-22T14:46:28.413Z,25.42
2023-05-22T14:51:34.548Z,25.71
2023-05-22T14:56:42.246Z,25.27
2023-05-22T15:01:50.428Z,24.82
2023-05-22T15:06:55.602Z,25.01
2023-05-22T15:12:06.259Z,25.14
2023-05-22T15:17:11.478Z,24.90
2023-05-22T15:22:21.018Z,25.46
2023-05-22T15:27:28.686Z,24.90
2023-05-22T15:32:34.948Z,24.51
2023-05-22T15:37:40.285Z,24.25
2023-05-22T15:42:48.325Z,24.26
2023-05-22T15:47:53.748Z,24.47
2023-05-22T15:52:58.840Z,24.33
2023-05-22T15:58:09.468Z,24.32
2023-05-22T16:03:15.479Z,24.17
2023-05-22T16:08:22.774Z,23.87
2023-05-22T16:13:34.704Z,24.01
2023-05-22T16:18:44.077Z,24.05
2023-05-22T16:23:49.172Z,23.35
2023-05-22T16:28:57.121Z,23.48
2023-05-22T16:34:03.745Z,23.50
2023-05-22T16:39:08.815Z,23.84
2023-05-22T16:44:16.433Z,23.71
2023-05-22T16:49:23.509Z,23.54
2023-05-22T16:54:37.065Z,23.52
2023-05-22T16:59:46.757Z,23.32
2023-05-22T17:04:54.654Z,23.12
2023-05-22T17:09:59.827Z,23.10
2023-05-22T17:15:10.249Z,22.88
2023-05-22T17:20:15.512Z,22.93
2023-05-22T17:25:21.264Z,22.74
2023-05-22T17:30:32.301Z,22.87
2023-05-22T17:35:39.362Z,22.34
2023-05-22T17:40:45.874Z,22.23
2023-05-22T17:45:58.357Z,22.11
2023-05-22T17:51:04.014Z,22.28
2023-05-22T17:56:09.676Z,22.07
2023-05-22T18:01:20.098Z,21.83
2023-05-22T18:06:27.995Z,21.70
2023-05-22T18:11:36.156Z,21.51
2023-05-22T18:16:43.897Z,21.43
2023-05-22T18:21:54.186Z,21.45
2023-05-22T18:26:59.309Z,21.27
2023-05-22T18:32:09.612Z,21.17
2023-05-22T18:37:16.601Z,21.01
2023-05-22T18:42:23.945Z,20.88
2023-05-22T18:47:31.865Z,20.66
2023-05-22T18:52:40.178Z,20.55
2023-05-22T18:57:45.282Z,20.50
2023-05-22T19:02:53.014Z,20.35
2023-05-22T19:07:58.136Z,20.30
2023-05-22T19:13:06.441Z,20.17
2023-05-22T19:18:14.355Z,20.07
2023-05-22T19:23:21.695Z,19.93
2023-05-22T19:40:49.153Z,19.70
2023-05-22T19:45:58.322Z,19.56
2023-05-22T19:51:04.117Z,19.64
2023-05-22T19:56:14.111Z,19.36
2023-05-22T20:01:21.603Z,19.39
2023-05-22T20:06:31.665Z,19.02
2023-05-22T20:11:40.912Z,19.16
2023-05-22T20:16:46.266Z,19.49
2023-05-22T20:21:58.227Z,19.20
2023-05-22T20:27:07.344Z,19.26
2023-05-22T20:32:13.476Z,19.12
2023-05-22T20:37:20.632Z,18.53
2023-05-22T20:42:30.200Z,18.39
2023-05-22T20:47:39.381Z,18.65
2023-05-22T20:52:46.007Z,18.52
2023-05-22T20:57:54.908Z,18.64
2023-05-22T21:03:02.907Z,18.40
2023-05-22T21:08:11.580Z,18.18
2023-05-22T21:13:19.553Z,17.97
2023-05-22T21:18:26.336Z,18.06
2023-05-22T21:23:31.640Z,18.18
2023-05-22T21:28:41.686Z,18.11
2023-05-22T21:33:47.228Z,17.98
2023-05-22T21:38:53.508Z,17.87
2023-05-22T21:44:01.483Z,17.71
2023-05-22T21:49:06.658Z,17.75
2023-05-22T21:54:12.104Z,17.80
2023-05-22T21:59:20.061Z,17.87
2023-05-22T22:04:25.310Z,17.71
2023-05-22T22:09:33.580Z,17.45
2023-05-22T22:14:41.365Z,17.39
2023-05-22T22:19:47.361Z,17.46
2023-05-22T22:25:05.719Z,17.38
2023-05-22T22:30:14.407Z,17.20
2023-05-22T22:35:19.607Z,17.95
2023-05-22T22:40:26.697Z,18.21
2023-05-22T22:45:40.418Z,18.08
2023-05-22T22:50:47.031Z,18.00
2023-05-22T22:55:57.147Z,17.82
2023-05-22T23:01:05.369Z,17.76
2023-05-22T23:06:13.643Z,17.67
2023-05-22T23:11:25.424Z,17.33
2023-05-22T23:16:36.219Z,17.63
2023-05-22T23:21:42.883Z,17.48
2023-05-22T23:26:47.964Z,17.33
2023-05-22T23:31:55.894Z,17.83
2023-05-22T23:37:03.080Z,17.45
2023-05-22T23:42:09.971Z,17.22
2023-05-22T23:47:20.392Z,17.00
2023-05-22T23:52:30.728Z,16.63
2023-05-22T23:57:37.411Z,16.90
